createdAt,value
2019-04-01T00:02:21.684Z,11.00
2019-04-01T00:04:50.656Z,10.90
2019-04-01T00:07:19.857Z,10.80
2019-04-01T00:09:48.847Z,10.80
2019-04-01T00:12:17.849Z,10.80
2019-04-01T00:14:46.726Z,10.80
2019-04-01T00:17:15.737Z,10.90
2019-04-01T00:19:44.719Z,10.90
2019-04-01T00:22:13.771Z,10.90
2019-04-01T00:24:43.213Z,11.00
2019-04-01T00:27:13.657Z,11.10
2019-04-01T00:29:42.706Z,11.10
2019-04-01T00:32:11.774Z,11.20
2019-04-01T00:34:41.010Z,11.20
2019-04-01T00:37:10.107Z,11.30
2019-04-01T00:39:38.985Z,11.30
2019-04-01T00:42:27.827Z,11.20
2019-04-01T00:44:56.722Z,11.20
2019-04-01T00:47:25.603Z,11.20
2019-04-01T00:49:54.443Z,11.20
2019-04-01T00:52:23.548Z,11.20
2019-04-01T00:54:52.657Z,11.30
2019-04-01T00:57:24.687Z,11.30
2019-04-01T00:59:53.661Z,11.30
2019-04-01T01:02:22.941Z,11.40
2019-04-01T01:04:51.898Z,11.40
2019-04-01T01:07:20.903Z,11.40
2019-04-01T01:09:49.935Z,11.40
2019-04-01T01:12:18.883Z,11.30
2019-04-01T01:14:47.788Z,11.40
2019-04-01T01:17:16.707Z,11.30
2019-04-01T01:19:45.701Z,11.30
2019-04-01T01:22:16.432Z,11.30
2019-04-01T01:24:47.046Z,11.20
2019-04-01T01:27:15.976Z,11.20
2019-04-01T01:29:44.959Z,11.30
2019-04-01T01:32:13.938Z,11.20
2019-04-01T01:34:43.149Z,11.30
2019-04-01T01:37:12.209Z,11.30
2019-04-01T01:39:41.396Z,11.20
2019-04-01T01:42:10.319Z,11.20
2019-04-01T01:44:39.238Z,11.20
2019-04-01T01:47:08.200Z,11.10
2019-04-01T01:49:37.287Z,11.20
2019-04-01T01:52:06.122Z,11.10
2019-04-01T01:54:35.054Z,11.10
2019-04-01T01:57:03.972Z,11.10
2019-04-01T01:59:33.107Z,11.10
2019-04-01T02:02:02.039Z,11.10
2019-04-01T02:04:30.883Z,11.20
2019-04-01T02:07:00.140Z,11.10
2019-04-01T02:09:31.952Z,11.10
2019-04-01T02:12:01.197Z,11.10
2019-04-01T02:14:30.075Z,11.10
2019-04-01T02:16:58.919Z,11.10
2019-04-01T02:19:27.911Z,11.00
2019-04-01T02:21:57.103Z,11.00
2019-04-01T02:24:25.961Z,11.00
2019-04-01T02:26:54.952Z,11.00
2019-04-01T02:29:23.972Z,10.90
2019-04-01T02:31:53.306Z,11.00
2019-04-01T02:34:22.514Z,10.90
2019-04-01T02:36:51.485Z,10.90
2019-04-01T02:39:20.714Z,10.80
2019-04-01T02:41:49.769Z,10.80
2019-04-01T02:44:18.856Z,10.80
2019-04-01T02:46:47.784Z,10.80
2019-04-01T02:49:16.701Z,10.80
2019-04-01T02:51:45.703Z,10.80
2019-04-01T02:54:14.978Z,10.70
2019-04-01T02:56:44.069Z,10.70
2019-04-01T02:59:13.104Z,10.70
2019-04-01T03:01:42.274Z,10.60
2019-04-01T03:04:11.177Z,10.50
2019-04-01T03:06:40.143Z,10.40
2019-04-01T03:09:09.441Z,10.30
2019-04-01T03:11:38.584Z,10.30
2019-04-01T03:14:07.621Z,10.20
2019-04-01T03:16:36.637Z,10.10
2019-04-01T03:19:05.710Z,10.20
2019-04-01T03:21:34.717Z,10.10
2019-04-01T03:24:03.662Z,10.00
2019-04-01T03:26:32.500Z,10.00
2019-04-01T03:29:01.718Z,9.90
2019-04-01T03:31:30.699Z,9.80
2019-04-01T03:33:59.687Z,9.80
2019-04-01T03:36:28.878Z,9.70
2019-04-01T03:38:57.871Z,9.70
2019-04-01T03:41:26.752Z,9.60
2019-04-01T03:43:55.915Z,9.60
2019-04-01T03:46:24.854Z,9.50
2019-04-01T03:48:53.940Z,9.40
2019-04-01T03:51:23.049Z,9.40
2019-04-01T03:53:51.929Z,9.40
2019-04-01T03:56:20.966Z,9.40
2019-04-01T03:58:50.096Z,9.30
2019-04-01T04:01:19.139Z,9.20
2019-04-01T04:03:48.056Z,9.20
2019-04-01T04:06:17.054Z,9.20
2019-04-01T04:08:46.065Z,9.20
2019-04-01T04:11:15.076Z,9.20
2019-04-01T04:13:44.131Z,9.20
2019-04-01T04:16:13.385Z,9.10
2019-04-01T04:18:42.677Z,9.10
2019-04-01T04:21:11.738Z,9.00
2019-04-01T04:23:41.171Z,8.90
2019-04-01T04:26:10.177Z,8.90
2019-04-01T04:28:39.221Z,8.80
2019-04-01T04:31:08.148Z,8.80
2019-04-01T04:33:37.115Z,8.80
2019-04-01T04:36:06.238Z,8.70
2019-04-01T04:38:35.731Z,8.70
2019-04-01T04:41:04.775Z,8.70
2019-04-01T04:43:33.799Z,8.60
2019-04-01T04:46:02.646Z,8.60
2019-04-01T04:48:31.471Z,8.60
2019-04-01T04:51:00.695Z,8.60
2019-04-01T04:53:29.869Z,8.60
2019-04-01T04:55:59.076Z,8.60
2019-04-01T04:58:28.009Z,8.60
2019-04-01T05:00:56.977Z,8.60
2019-04-01T05:03:25.971Z,8.50
2019-04-01T05:05:58.141Z,8.50
2019-04-01T05:08:27.573Z,8.40
2019-04-01T05:10:56.544Z,8.40
2019-04-01T05:13:25.554Z,8.40
2019-04-01T05:15:54.765Z,8.40
2019-04-01T05:18:23.816Z,8.40
2019-04-01T05:20:52.822Z,8.30
2019-04-01T05:23:22.232Z,8.30
2019-04-01T05:25:51.330Z,8.30
2019-04-01T05:28:20.545Z,8.30
2019-04-01T05:30:49.601Z,8.30
2019-04-01T05:33:19.357Z,8.30
2019-04-01T05:35:48.470Z,8.30
2019-04-01T05:38:17.637Z,8.30
2019-04-01T05:40:46.526Z,8.30
2019-04-01T05:43:17.221Z,8.30
2019-04-01T05:45:46.285Z,8.40
2019-04-01T05:48:16.881Z,8.50
2019-04-01T05:50:45.902Z,8.60
2019-04-01T05:53:15.136Z,8.60
2019-04-01T05:55:44.023Z,8.60
2019-04-01T05:58:12.927Z,8.70
2019-04-01T06:00:43.371Z,8.60
2019-04-01T06:03:12.335Z,8.60
2019-04-01T06:05:41.350Z,8.70
2019-04-01T06:08:10.162Z,8.70
2019-04-01T06:10:39.046Z,8.70
2019-04-01T06:13:08.118Z,8.40
2019-04-01T06:15:37.156Z,8.30
2019-04-01T06:18:06.109Z,8.30
2019-04-01T06:20:34.992Z,8.40
2019-04-01T06:23:04.042Z,8.50
2019-04-01T06:25:33.007Z,8.60
2019-04-01T06:28:01.949Z,8.70
2019-04-01T06:30:31.007Z,8.80
2019-04-01T06:32:59.949Z,8.90
2019-04-01T06:35:29.190Z,8.90
2019-04-01T06:37:58.293Z,9.10
2019-04-01T06:40:27.359Z,9.20
2019-04-01T06:42:56.478Z,9.30
2019-04-01T06:45:25.311Z,9.40
2019-04-01T06:47:54.264Z,9.50
2019-04-01T06:50:23.476Z,9.50
2019-04-01T06:52:55.442Z,9.60
2019-04-01T06:55:24.630Z,9.70
2019-04-01T06:57:53.500Z,9.80
2019-04-01T07:00:22.470Z,9.90
2019-04-01T07:02:51.365Z,10.00
2019-04-01T07:05:20.215Z,10.10
2019-04-01T07:07:49.129Z,10.10
2019-04-01T07:10:17.981Z,10.20
2019-04-01T07:12:46.963Z,10.20
2019-04-01T07:15:15.983Z,10.30
2019-04-01T07:17:44.915Z,10.40
2019-04-01T07:20:13.872Z,10.50
2019-04-01T07:22:42.739Z,10.50
2019-04-01T07:25:11.805Z,10.60
2019-04-01T07:27:40.625Z,10.60
2019-04-01T07:30:09.588Z,10.70
2019-04-01T07:32:38.540Z,10.80
2019-04-01T07:35:07.351Z,10.80
2019-04-01T07:37:36.378Z,11.00
2019-04-01T07:40:05.997Z,11.10
2019-04-01T07:42:35.130Z,11.20
2019-04-01T07:45:05.871Z,11.30
2019-04-01T07:47:35.312Z,11.40
2019-04-01T07:50:05.570Z,11.50
2019-04-01T07:52:34.808Z,11.60
2019-04-01T07:55:05.217Z,11.60
2019-04-01T07:57:34.358Z,11.70
2019-04-01T08:00:05.334Z,11.80
2019-04-01T08:02:34.156Z,11.90
2019-04-01T08:05:03.266Z,11.90
2019-04-01T08:07:32.357Z,12.00
2019-04-01T08:10:01.242Z,12.20
2019-04-01T08:12:30.314Z,12.50
2019-04-01T08:14:59.525Z,12.90
2019-04-01T08:17:28.456Z,13.20
2019-04-01T08:19:57.332Z,13.50
2019-04-01T08:22:26.173Z,13.70
2019-04-01T08:24:55.077Z,13.80
2019-04-01T08:27:23.989Z,14.10
2019-04-01T08:29:53.167Z,14.60
2019-04-01T08:32:22.099Z,15.10
2019-04-01T08:34:51.071Z,15.70
2019-04-01T08:37:20.235Z,16.10
2019-04-01T08:39:51.059Z,16.40
2019-04-01T08:42:20.015Z,16.50
2019-04-01T08:44:48.950Z,16.50
2019-04-01T08:47:17.831Z,16.60
2019-04-01T08:49:46.923Z,16.70
2019-04-01T08:52:15.897Z,16.70
2019-04-01T08:54:45.355Z,16.80
2019-04-01T08:57:14.252Z,16.90
2019-04-01T08:59:43.328Z,16.80
2019-04-01T09:02:18.169Z,16.90
2019-04-01T09:04:44.062Z,16.90
2019-04-01T09:07:12.988Z,16.90
2019-04-01T09:09:41.995Z,16.90
2019-04-01T09:12:10.887Z,17.00
2019-04-01T09:14:39.937Z,17.00
2019-04-01T09:17:08.943Z,17.10
2019-04-01T09:19:41.855Z,17.00
2019-04-01T09:22:10.667Z,17.00
2019-04-01T09:24:39.497Z,17.10
2019-04-01T09:27:08.470Z,17.20
2019-04-01T09:29:37.660Z,17.40
2019-04-01T09:32:06.550Z,17.30
2019-04-01T09:34:35.531Z,17.20
2019-04-01T09:37:04.627Z,17.40
2019-04-01T09:39:33.549Z,17.40
2019-04-01T09:42:02.455Z,17.10
2019-04-01T09:44:37.164Z,17.00
2019-04-01T09:47:04.852Z,17.10
2019-04-01T09:49:33.811Z,17.10
2019-04-01T09:52:04.012Z,17.20
2019-04-01T09:54:33.055Z,17.20
2019-04-01T09:57:16.153Z,17.50
2019-04-01T09:59:32.986Z,17.70
2019-04-01T10:02:01.983Z,17.90
2019-04-01T10:04:30.937Z,18.10
2019-04-01T10:06:59.896Z,18.30
2019-04-01T10:09:29.073Z,18.40
2019-04-01T10:11:58.155Z,18.30
2019-04-01T10:14:27.291Z,18.40
2019-04-01T10:16:56.247Z,18.60
2019-04-01T10:19:25.043Z,18.80
2019-04-01T10:21:53.937Z,18.70
2019-04-01T10:24:23.135Z,18.90
2019-04-01T10:26:52.820Z,19.00
2019-04-01T10:29:21.743Z,19.00
2019-04-01T10:31:50.834Z,19.00
2019-04-01T10:34:19.783Z,19.00
2019-04-01T10:36:48.716Z,18.80
2019-04-01T10:39:17.917Z,18.80
2019-04-01T10:41:47.066Z,18.60
2019-04-01T10:44:16.111Z,18.50
2019-04-01T10:46:45.205Z,18.50
2019-04-01T10:49:14.128Z,18.50
2019-04-01T10:51:43.118Z,18.50
2019-04-01T10:54:12.373Z,18.60
2019-04-01T10:56:41.534Z,18.60
2019-04-01T10:59:10.718Z,18.50
2019-04-01T11:01:39.932Z,18.50
2019-04-01T11:04:08.927Z,18.70
2019-04-01T11:06:38.273Z,18.80
2019-04-01T11:09:09.680Z,18.80
2019-04-01T11:11:38.719Z,18.80
2019-04-01T11:14:07.912Z,18.90
2019-04-01T11:16:36.844Z,19.00
2019-04-01T11:19:05.749Z,19.10
2019-04-01T11:21:34.789Z,19.10
2019-04-01T11:24:07.465Z,19.20
2019-04-01T11:26:36.425Z,19.40
2019-04-01T11:29:05.294Z,19.40
2019-04-01T11:31:34.359Z,19.20
2019-04-01T11:34:03.349Z,19.10
2019-04-01T11:36:32.302Z,19.20
2019-04-01T11:39:01.329Z,19.10
2019-04-01T11:41:30.550Z,19.20
2019-04-01T11:43:59.692Z,19.10
2019-04-01T11:46:28.540Z,19.10
2019-04-01T11:48:57.520Z,19.10
2019-04-01T11:51:33.140Z,19.20
2019-04-01T11:53:57.269Z,19.60
2019-04-01T11:56:26.738Z,19.80
2019-04-01T11:58:56.979Z,19.90
2019-04-01T12:01:25.981Z,19.70
2019-04-01T12:03:55.063Z,19.60
2019-04-01T12:06:24.237Z,19.60
2019-04-01T12:08:53.437Z,19.70
2019-04-01T12:11:22.387Z,19.90
2019-04-01T12:13:51.403Z,19.80
2019-04-01T12:16:20.286Z,19.90
2019-04-01T12:18:49.353Z,20.00
2019-04-01T12:21:19.867Z,20.00
2019-04-01T12:23:48.778Z,20.30
2019-04-01T12:26:17.929Z,20.60
2019-04-01T12:28:47.213Z,20.70
2019-04-01T12:31:16.237Z,20.60
2019-04-01T12:33:45.147Z,20.50
2019-04-01T12:36:14.058Z,20.70
2019-04-01T12:38:43.094Z,20.80
2019-04-01T12:41:12.071Z,21.00
2019-04-01T12:43:41.171Z,21.10
2019-04-01T12:46:10.222Z,21.30
2019-04-01T12:48:39.390Z,21.30
2019-04-01T12:51:08.551Z,21.30
2019-04-01T12:53:37.403Z,21.40
2019-04-01T12:56:06.314Z,21.50
2019-04-01T12:58:35.292Z,21.60
2019-04-01T13:01:04.378Z,21.80
2019-04-01T13:03:33.388Z,22.00
2019-04-01T13:06:02.324Z,22.20
2019-04-01T13:08:31.363Z,22.50
2019-04-01T13:11:00.571Z,22.50
2019-04-01T13:13:29.867Z,22.40
2019-04-01T13:15:58.935Z,22.60
2019-04-01T13:18:27.949Z,22.50
2019-04-01T13:20:57.029Z,22.50
2019-04-01T13:23:27.620Z,22.60
2019-04-01T13:25:56.788Z,22.60
2019-04-01T13:28:26.126Z,22.60
2019-04-01T13:30:55.515Z,22.70
2019-04-01T13:33:24.409Z,22.80
2019-04-01T13:35:53.491Z,22.80
2019-04-01T13:38:22.344Z,22.90
2019-04-01T13:40:51.304Z,22.90
2019-04-01T13:43:20.294Z,22.80
2019-04-01T13:45:50.169Z,22.70
2019-04-01T13:48:19.939Z,22.70
2019-04-01T13:50:51.824Z,22.70
2019-04-01T13:53:24.407Z,22.70
2019-04-01T13:55:56.117Z,22.50
2019-04-01T13:58:25.276Z,22.50
2019-04-01T14:00:54.384Z,22.60
2019-04-01T14:03:23.403Z,22.70
2019-04-01T14:06:05.764Z,22.70
2019-04-01T14:08:34.960Z,22.80
2019-04-01T14:11:06.020Z,22.90
2019-04-01T14:13:34.679Z,22.90
2019-04-01T14:16:03.957Z,22.90
2019-04-01T14:18:32.824Z,22.90
2019-04-01T14:21:15.221Z,22.90
2019-04-01T14:23:32.362Z,22.80
2019-04-01T14:26:01.426Z,22.90
2019-04-01T14:28:30.492Z,22.90
2019-04-01T14:30:59.392Z,22.90
2019-04-01T14:33:28.338Z,22.80
2019-04-01T14:35:57.333Z,22.80
2019-04-01T14:38:26.301Z,22.80
2019-04-01T14:40:58.140Z,22.60
2019-04-01T14:43:25.974Z,22.30
2019-04-01T14:45:54.940Z,22.20
2019-04-01T14:48:23.786Z,22.10
2019-04-01T14:50:52.702Z,21.80
2019-04-01T14:53:21.571Z,21.70
2019-04-01T14:55:50.459Z,21.60
2019-04-01T14:58:19.381Z,21.50
2019-04-01T15:00:48.296Z,21.20
2019-04-01T15:03:17.430Z,21.00
2019-04-01T15:05:46.416Z,20.80
2019-04-01T15:08:19.178Z,20.60
2019-04-01T15:10:46.030Z,20.50
2019-04-01T15:13:15.190Z,20.40
2019-04-01T15:15:44.159Z,20.30
2019-04-01T15:18:12.979Z,20.20
2019-04-01T15:20:41.942Z,20.10
2019-04-01T15:23:11.151Z,20.00
2019-04-01T15:25:40.110Z,20.00
2019-04-01T15:28:09.234Z,19.90
2019-04-01T15:30:38.363Z,19.90
2019-04-01T15:33:07.439Z,19.80
2019-04-01T15:35:36.473Z,19.70
2019-04-01T15:38:05.934Z,19.70
2019-04-01T15:40:34.932Z,19.70
2019-04-01T15:43:03.947Z,19.60
2019-04-01T15:45:33.241Z,19.50
2019-04-01T15:48:04.809Z,19.50
2019-04-01T15:50:33.706Z,19.50
2019-04-01T15:53:02.765Z,19.50
2019-04-01T15:55:33.336Z,19.30
2019-04-01T15:58:04.411Z,19.30
2019-04-01T16:00:33.481Z,19.10
2019-04-01T16:03:02.543Z,19.10
2019-04-01T16:05:34.182Z,19.00
2019-04-01T16:08:03.429Z,19.00
2019-04-01T16:10:32.431Z,19.00
2019-04-01T16:13:01.475Z,19.00
2019-04-01T16:15:32.159Z,18.90
2019-04-01T16:18:02.348Z,18.90
2019-04-01T16:20:34.145Z,18.90
2019-04-01T16:23:02.607Z,18.90
2019-04-01T16:25:31.593Z,18.90
2019-04-01T16:28:00.630Z,18.80
2019-04-01T16:30:29.554Z,18.70
2019-04-01T16:32:58.889Z,18.70
2019-04-01T16:35:27.875Z,18.60
2019-04-01T16:37:59.370Z,18.60
2019-04-01T16:40:27.584Z,18.60
2019-04-01T16:42:56.398Z,18.60
2019-04-01T16:45:25.313Z,18.50
2019-04-01T16:47:54.314Z,18.40
2019-04-01T16:50:23.307Z,18.40
2019-04-01T16:52:52.338Z,18.40
2019-04-01T16:55:21.427Z,18.30
2019-04-01T16:57:50.501Z,18.30
2019-04-01T17:00:19.640Z,18.20
2019-04-01T17:02:50.082Z,18.20
2019-04-01T17:05:21.050Z,18.20
2019-04-01T17:07:50.049Z,18.10
2019-04-01T17:10:20.950Z,18.10
2019-04-01T17:12:49.957Z,18.00
2019-04-01T17:15:19.085Z,18.00
2019-04-01T17:17:48.332Z,17.90
2019-04-01T17:20:17.615Z,17.90
2019-04-01T17:22:46.832Z,17.90
2019-04-01T17:25:15.957Z,17.80
2019-04-01T17:27:45.074Z,17.80
2019-04-01T17:30:14.094Z,17.70
2019-04-01T17:32:43.347Z,17.70
2019-04-01T17:35:13.175Z,17.60
2019-04-01T17:37:42.655Z,17.60
2019-04-01T17:40:12.284Z,17.50
2019-04-01T17:42:41.343Z,17.40
2019-04-01T17:45:25.694Z,17.40
2019-04-01T17:47:54.744Z,17.30
2019-04-01T17:50:23.893Z,17.30
2019-04-01T17:52:53.980Z,17.20
2019-04-01T17:55:23.449Z,17.10
2019-04-01T17:57:52.585Z,17.10
2019-04-01T18:00:25.943Z,17.00
2019-04-01T18:02:54.876Z,17.00
2019-04-01T18:05:25.213Z,16.90
2019-04-01T18:07:54.515Z,16.90
2019-04-01T18:10:23.447Z,16.90
2019-04-01T18:12:52.453Z,16.80
2019-04-01T18:15:21.544Z,16.80
2019-04-01T18:17:50.724Z,16.70
2019-04-01T18:20:20.249Z,16.70
2019-04-01T18:22:49.369Z,16.60
2019-04-01T18:25:18.259Z,16.50
2019-04-01T18:27:47.186Z,16.50
2019-04-01T18:30:16.260Z,16.40
2019-04-01T18:32:45.393Z,16.30
2019-04-01T18:35:14.478Z,16.30
2019-04-01T18:37:43.735Z,16.20
2019-04-01T18:40:12.764Z,16.10
2019-04-01T18:42:41.599Z,16.00
2019-04-01T18:45:10.572Z,16.00
2019-04-01T18:47:39.590Z,15.90
2019-04-01T18:50:08.736Z,15.90
2019-04-01T18:52:38.363Z,15.80
2019-04-01T18:55:08.089Z,15.80
2019-04-01T18:57:37.021Z,15.70
2019-04-01T19:00:10.010Z,15.60
2019-04-01T19:02:38.872Z,15.50
2019-04-01T19:05:08.217Z,15.50
2019-04-01T19:07:38.145Z,15.40
2019-04-01T19:10:07.441Z,15.30
2019-04-01T19:12:36.493Z,15.30
2019-04-01T19:15:07.317Z,15.20
2019-04-01T19:17:36.417Z,15.20
2019-04-01T19:20:08.036Z,15.10
2019-04-01T19:22:36.967Z,15.00
2019-04-01T19:25:08.939Z,15.00
2019-04-01T19:27:38.382Z,15.00
2019-04-01T19:30:07.438Z,15.00
2019-04-01T19:32:38.192Z,14.90
2019-04-01T19:35:09.461Z,14.80
2019-04-01T19:37:38.076Z,14.70
2019-04-01T19:40:07.766Z,14.70
2019-04-01T19:42:39.491Z,14.60
2019-04-01T19:45:07.510Z,14.50
2019-04-01T19:47:36.351Z,14.50
2019-04-01T19:50:09.538Z,14.50
2019-04-01T19:52:38.611Z,14.40
2019-04-01T19:55:07.612Z,14.40
2019-04-01T19:57:36.508Z,14.30
2019-04-01T20:00:06.596Z,14.20
2019-04-01T20:02:35.571Z,14.20
2019-04-01T20:05:06.543Z,14.10
2019-04-01T20:07:35.558Z,14.10
2019-04-01T20:10:05.488Z,14.10
2019-04-01T20:12:34.573Z,14.00
2019-04-01T20:15:11.933Z,14.00
2019-04-01T20:17:42.081Z,13.90
2019-04-01T20:20:14.269Z,13.90
2019-04-01T20:22:41.536Z,13.80
2019-04-01T20:25:10.647Z,13.80
2019-04-01T20:27:39.963Z,13.70
2019-04-01T20:30:09.314Z,13.60
2019-04-01T20:32:38.697Z,13.60
2019-04-01T20:35:08.459Z,13.50
2019-04-01T20:37:37.617Z,13.40
2019-04-01T20:40:07.211Z,13.40
2019-04-01T20:42:36.306Z,13.30
2019-04-01T20:45:10.657Z,13.20
2019-04-01T20:47:38.380Z,13.20
2019-04-01T20:50:10.703Z,13.10
2019-04-01T20:52:39.903Z,13.10
2019-04-01T20:55:09.059Z,13.10
2019-04-01T20:57:37.984Z,13.10
2019-04-01T21:00:09.302Z,13.00
2019-04-01T21:02:38.505Z,12.90
2019-04-01T21:05:08.160Z,13.00
2019-04-01T21:07:36.965Z,12.90
2019-04-01T21:10:07.537Z,12.80
2019-04-01T21:12:37.248Z,12.70
2019-04-01T21:15:07.055Z,12.60
2019-04-01T21:17:36.198Z,12.60
2019-04-01T21:20:08.251Z,12.50
2019-04-01T21:22:37.417Z,12.50
2019-04-01T21:25:09.296Z,12.40
2019-04-01T21:27:38.371Z,12.40
2019-04-01T21:30:10.202Z,12.30
2019-04-01T21:32:39.184Z,12.20
2019-04-01T21:35:09.071Z,12.20
2019-04-01T21:37:38.608Z,12.20
2019-04-01T21:40:07.542Z,12.20
2019-04-01T21:42:36.599Z,12.20
2019-04-01T21:45:07.327Z,12.10
2019-04-01T21:47:36.230Z,12.10
2019-04-01T21:50:06.941Z,12.10
2019-04-01T21:52:36.071Z,12.10
2019-04-01T21:55:08.167Z,12.10
2019-04-01T21:57:36.545Z,12.10
2019-04-01T22:00:14.218Z,12.10
2019-04-01T22:02:44.084Z,12.10
2019-04-01T22:05:13.826Z,12.00
2019-04-01T22:07:42.885Z,12.00
2019-04-01T22:10:11.924Z,11.90
2019-04-01T22:12:41.019Z,11.90
2019-04-01T22:15:10.073Z,11.80
2019-04-01T22:17:38.997Z,11.80
2019-04-01T22:20:07.879Z,11.70
2019-04-01T22:22:37.472Z,11.70
2019-04-01T22:25:06.533Z,11.70
2019-04-01T22:27:35.539Z,11.60
2019-04-01T22:30:06.526Z,11.60
2019-04-01T22:32:35.315Z,11.50
2019-04-01T22:35:07.832Z,11.50
2019-04-01T22:37:37.418Z,11.50
2019-04-01T22:40:06.892Z,11.50
2019-04-01T22:42:35.894Z,11.40
2019-04-01T22:45:06.602Z,11.30
2019-04-01T22:47:35.540Z,11.20
2019-04-01T22:50:06.187Z,11.20
2019-04-01T22:52:35.767Z,11.20
2019-04-01T22:55:05.410Z,11.10
2019-04-01T22:57:34.278Z,11.00
2019-04-01T23:00:03.613Z,11.00
2019-04-01T23:02:32.656Z,10.90
2019-04-01T23:05:01.789Z,10.90
2019-04-01T23:07:30.673Z,10.90
2019-04-01T23:09:59.671Z,10.80
2019-04-01T23:12:28.769Z,10.80
2019-04-01T23:14:57.866Z,10.70
2019-04-01T23:17:26.781Z,10.70
2019-04-01T23:19:56.104Z,10.70
2019-04-01T23:22:25.165Z,10.70
2019-04-01T23:24:54.144Z,10.70
2019-04-01T23:27:24.218Z,10.70
2019-04-01T23:29:53.765Z,10.70
2019-04-01T23:32:23.180Z,10.70
2019-04-01T23:34:52.498Z,10.70
2019-04-01T23:37:21.557Z,10.60
2019-04-01T23:39:50.501Z,10.60
2019-04-01T23:42:19.496Z,10.50
2019-04-01T23:44:48.726Z,10.50
2019-04-01T23:47:17.746Z,10.40
2019-04-01T23:49:46.773Z,10.40
2019-04-01T23:52:15.872Z,10.40
2019-04-01T23:54:45.080Z,10.30
2019-04-01T23:57:14.173Z,10.40
2019-04-01T23:59:44.014Z,10.30
